Time;durP1;ratioP1;P1;durP2;ratioP2;P2;SDS_P1;SDS_P2;PMS_P1;PMS_P2;Temp;Humidity;BMP_temperature;BMP_pressure;BME280_temperature;BME280_humidity;BME280_pressure;Samples;Min_cycle;Max_cycle;Signal;HPM_P1;HPM_P2
2022/03/06 00:00:39;;;;;;;23.93;14.57;;;1.50;1.00;;;;;;5092880;28;20239;-69
2022/03/06 00:03:06;;;;;;;23.93;14.80;;;1.40;99.90;;;;;;5093301;28;20583;-69
2022/03/06 00:05:33;;;;;;;25.07;15.33;;;1.60;23.90;;;;;;5093848;28;20297;-69
2022/03/06 00:08:02;;;;;;;25.70;15.40;;;1.50;99.90;;;;;;5093334;28;20675;-69
2022/03/06 00:10:29;;;;;;;25.07;14.20;;;1.20;1.00;;;;;;5093745;28;20225;-69
2022/03/06 00:12:57;;;;;;;26.00;14.57;;;1.30;1.00;;;;;;5096901;28;20646;-69
2022/03/06 00:15:26;;;;;;;24.93;14.33;;;1.50;1.00;;;;;;5093975;28;20198;-69
2022/03/06 00:17:53;;;;;;;27.17;14.97;;;1.60;1.00;;;;;;5099324;28;20699;-69
2022/03/06 00:20:21;;;;;;;23.33;13.93;;;1.50;1.00;;;;;;5093484;28;20193;-69
2022/03/06 00:22:47;;;;;;;22.83;14.03;;;1.70;1.00;;;;;;5092629;28;20209;-69
2022/03/06 00:25:16;;;;;;;25.47;15.00;;;1.60;99.90;;;;;;5092616;28;20208;-69
2022/03/06 00:27:43;;;;;;;24.77;14.37;;;1.40;1.00;;;;;;5093210;28;20204;-69
2022/03/06 00:30:11;;;;;;;25.47;14.23;;;1.10;14.90;;;;;;5092617;28;20200;-69
2022/03/06 00:32:37;;;;;;;23.83;13.53;;;1.10;99.90;;;;;;5102153;28;20201;-69
2022/03/06 00:35:05;;;;;;;25.80;13.87;;;1.20;1.00;;;;;;5113871;28;20204;-69
2022/03/06 00:37:32;;;;;;;26.80;14.50;;;1.40;99.90;;;;;;5113072;28;20229;-69
2022/03/06 00:39:59;;;;;;;23.23;13.10;;;1.50;33.10;;;;;;5113122;28;20557;-69
2022/03/06 00:42:27;;;;;;;22.33;14.30;;;1.70;99.90;;;;;;5112973;28;20665;-69
2022/03/06 00:44:54;;;;;;;23.50;14.00;;;1.60;99.90;;;;;;5113547;28;20655;-69
2022/03/06 00:47:21;;;;;;;22.03;14.10;;;1.60;1.00;;;;;;5113207;28;20296;-69
2022/03/06 00:49:48;;;;;;;24.63;14.37;;;1.60;1.00;;;;;;5113298;28;20204;-69
2022/03/06 00:52:15;;;;;;;23.40;14.67;;;1.60;1.00;;;;;;5112441;28;20219;-69
2022/03/06 00:54:42;;;;;;;24.57;14.83;;;1.40;99.90;;;;;;5112559;28;20651;-69
2022/03/06 00:57:09;;;;;;;24.67;14.77;;;1.30;99.90;;;;;;5112188;28;20224;-69
2022/03/06 00:59:37;;;;;;;26.50;15.27;;;1.30;1.00;;;;;;5112116;28;20200;-69
2022/03/06 01:02:07;;;;;;;23.10;14.03;;;1.40;1.00;;;;;;5112389;28;20299;-69
2022/03/06 01:04:34;;;;;;;23.17;13.40;;;1.30;99.90;;;;;;5112295;28;20639;-69
2022/03/06 01:07:02;;;;;;;23.30;14.23;;;1.40;99.90;;;;;;5104246;28;20231;-69
2022/03/06 01:09:29;;;;;;;22.13;13.60;;;1.40;99.90;;;;;;5092944;28;20212;-69
2022/03/06 01:11:56;;;;;;;23.23;13.73;;;1.40;99.90;;;;;;5092303;28;20558;-69
2022/03/06 01:14:23;;;;;;;22.00;13.87;;;1.50;1.00;;;;;;5092392;28;20201;-69
2022/03/06 01:16:52;;;;;;;24.43;12.93;;;1.50;1.00;;;;;;5091255;28;20202;-69
2022/03/06 01:19:19;;;;;;;22.83;13.07;;;1.40;1.00;;;;;;5092120;28;20288;-69
2022/03/06 01:21:46;;;;;;;22.50;13.47;;;1.20;1.00;;;;;;5092006;28;20229;-69
2022/03/06 01:24:14;;;;;;;21.77;13.50;;;1.40;1.00;;;;;;5092389;28;20197;-69
2022/03/06 01:26:41;;;;;;;20.90;13.27;;;1.40;99.90;;;;;;5092050;28;20566;-69
2022/03/06 01:29:08;;;;;;;23.73;13.53;;;1.50;99.90;;;;;;5091432;28;20193;-69
2022/03/06 01:31:35;;;;;;;19.67;12.00;;;1.50;1.00;;;;;;5090822;28;20209;-69
2022/03/06 01:34:03;;;;;;;20.60;12.20;;;1.60;1.00;;;;;;5092535;28;20212;-69
2022/03/06 01:36:31;;;;;;;21.77;12.13;;;1.50;1.00;;;;;;5092030;28;20202;-69
2022/03/06 01:38:58;;;;;;;24.20;13.33;;;1.30;1.00;;;;;;5106732;28;20285;-69
2022/03/06 01:41:25;;;;;;;20.57;12.43;;;1.40;1.00;;;;;;5112737;28;20197;-69
2022/03/06 01:43:52;;;;;;;22.13;13.10;;;1.60;1.00;;;;;;5072140;28;20202;-69
2022/03/06 01:46:18;;;;;;;21.03;12.50;;;1.70;99.90;;;;;;5077290;28;20573;-69
2022/03/06 01:48:45;;;;;;;22.37;13.40;;;1.80;99.90;;;;;;5102421;28;20211;-69
2022/03/06 01:51:14;;;;;;;24.27;13.37;;;1.60;66.10;;;;;;5112885;28;20230;-69
2022/03/06 01:53:41;;;;;;;19.93;12.20;;;1.50;1.00;;;;;;5111543;28;20223;-69
2022/03/06 01:56:09;;;;;;;23.67;13.40;;;1.40;1.00;;;;;;5112161;28;20211;-69
2022/03/06 01:58:36;;;;;;;20.97;11.77;;;1.40;99.90;;;;;;5111463;28;20225;-69
2022/03/06 02:01:03;;;;;;;23.40;12.90;;;1.40;1.00;;;;;;5111645;28;20570;-69
2022/03/06 02:03:30;;;;;;;22.90;12.27;;;1.50;93.40;;;;;;5111712;28;20659;-69
2022/03/06 02:05:57;;;;;;;21.87;12.10;;;1.50;1.00;;;;;;5112027;28;20201;-69
2022/03/06 02:08:25;;;;;;;21.67;12.17;;;1.60;1.00;;;;;;5112833;28;20193;-69
2022/03/06 02:10:54;;;;;;;21.50;12.90;;;1.50;1.00;;;;;;5115682;28;20201;-69
2022/03/06 02:13:21;;;;;;;18.87;11.90;;;1.50;99.90;;;;;;5116845;28;20204;-69
2022/03/06 02:15:49;;;;;;;20.97;12.60;;;1.40;1.00;;;;;;5109286;28;20315;-69
2022/03/06 02:18:16;;;;;;;24.10;13.00;;;1.30;1.00;;;;;;5102624;28;20221;-69
2022/03/06 02:20:42;;;;;;;19.63;11.80;;;1.30;99.90;;;;;;5097755;28;20212;-69
2022/03/06 02:23:11;;;;;;;21.60;12.73;;;1.20;1.00;;;;;;5104557;28;20594;-69
2022/03/06 02:25:37;;;;;;;22.40;13.03;;;1.20;99.90;;;;;;5110022;28;20566;-69
2022/03/06 02:28:08;;;;;;;21.30;12.40;;;1.30;1.00;;;;;;5098055;28;20213;-69
2022/03/06 02:30:39;;;;;;;22.03;12.83;;;1.40;1.00;;;;;;5088867;28;20205;-71
2022/03/06 02:33:08;;;;;;;22.33;12.40;;;1.30;1.00;;;;;;5105995;28;20216;-71
2022/03/06 02:35:35;;;;;;;21.57;12.83;;;1.30;1.00;;;;;;5095747;28;20202;-71
2022/03/06 02:38:04;;;;;;;21.53;12.90;;;1.30;1.00;;;;;;5107201;28;20235;-72
2022/03/06 02:40:39;;;;;;;21.87;12.73;;;1.30;1.00;;;;;;5103691;28;20202;-72
2022/03/06 02:43:06;;;;;;;21.20;12.50;;;1.40;1.00;;;;;;5094675;28;20390;-72
2022/03/06 02:45:34;;;;;;;21.87;13.17;;;1.30;99.90;;;;;;5095489;28;20243;-71
2022/03/06 02:48:02;;;;;;;24.40;13.83;;;1.30;1.00;;;;;;5104549;28;20201;-72
2022/03/06 02:50:32;;;;;;;22.33;12.77;;;1.10;1.00;;;;;;5095383;28;20229;-71
2022/03/06 02:53:00;;;;;;;22.40;12.33;;;1.20;1.00;;;;;;5103832;28;20211;-72
2022/03/06 02:55:29;;;;;;;19.80;11.50;;;1.20;1.00;;;;;;5095555;28;20304;-72
2022/03/06 02:57:58;;;;;;;23.27;12.43;;;1.30;1.00;;;;;;5094861;28;20232;-71
2022/03/06 03:00:26;;;;;;;21.63;12.33;;;1.10;1.00;;;;;;5094499;28;20198;-72
2022/03/06 03:02:54;;;;;;;19.07;12.00;;;1.10;99.90;;;;;;5093713;28;20197;-71
2022/03/06 03:05:21;;;;;;;21.03;12.30;;;1.10;99.90;;;;;;5094511;28;20592;-71
2022/03/06 03:07:50;;;;;;;21.37;12.20;;;1.10;1.00;;;;;;5095186;28;20563;-72
2022/03/06 03:10:18;;;;;;;22.17;12.33;;;1.10;1.00;;;;;;5103314;28;20205;-71
2022/03/06 03:12:46;;;;;;;20.50;12.80;;;1.10;1.00;;;;;;5101014;28;20213;-72
2022/03/06 03:15:16;;;;;;;22.27;12.63;;;1.10;1.00;;;;;;5094654;28;20198;-72
2022/03/06 03:17:43;;;;;;;22.90;12.17;;;1.20;99.90;;;;;;5096526;28;20206;-72
2022/03/06 03:20:12;;;;;;;20.93;12.47;;;1.20;99.90;;;;;;5082476;28;20205;-72
2022/03/06 03:22:39;;;;;;;21.20;12.27;;;1.20;13.60;;;;;;5106932;28;20202;-71
2022/03/06 03:25:07;;;;;;;19.27;11.93;;;1.20;99.90;;;;;;5082001;28;20202;-71
2022/03/06 03:27:35;;;;;;;21.70;12.00;;;1.20;99.90;;;;;;5085176;28;20557;-71
2022/03/06 03:30:02;;;;;;;23.97;12.87;;;1.20;99.90;;;;;;5094075;28;20556;-71
2022/03/06 03:32:30;;;;;;;19.60;11.57;;;1.20;1.00;;;;;;5102565;28;20541;-71
2022/03/06 03:34:57;;;;;;;19.90;11.97;;;1.10;1.00;;;;;;5109756;28;20204;-71
2022/03/06 03:37:23;;;;;;;22.37;12.87;;;1.00;1.00;;;;;;5093748;28;20206;-72
2022/03/06 03:39:50;;;;;;;21.70;12.17;;;1.10;1.00;;;;;;5094427;28;20229;-71
2022/03/06 03:42:17;;;;;;;18.87;10.73;;;1.00;1.00;;;;;;5093843;28;20204;-72
2022/03/06 03:44:44;;;;;;;16.33;10.17;;;1.00;1.00;;;;;;5094079;28;20257;-72
2022/03/06 03:47:11;;;;;;;18.20;10.93;;;1.20;1.00;;;;;;5092617;28;20201;-71
2022/03/06 03:49:39;;;;;;;17.63;10.93;;;1.10;99.90;;;;;;5094325;28;20194;-72
2022/03/06 03:52:06;;;;;;;19.10;10.47;;;1.20;99.90;;;;;;5093480;28;20217;-72
2022/03/06 03:54:33;;;;;;;17.00;10.70;;;1.20;99.90;;;;;;5094296;28;20206;-71
2022/03/06 03:57:00;;;;;;;16.10;9.80;;;1.20;99.90;;;;;;5100129;28;20211;-71
2022/03/06 03:59:28;;;;;;;18.40;9.43;;;1.20;99.90;;;;;;5096618;28;20213;-72
2022/03/06 04:01:54;;;;;;;17.63;10.23;;;1.10;99.90;;;;;;5095966;28;20203;-71
2022/03/06 04:04:21;;;;;;;18.03;9.60;;;1.20;99.90;;;;;;5113318;28;20566;-71
2022/03/06 04:06:49;;;;;;;15.23;9.37;;;1.20;99.90;;;;;;5113650;28;20219;-71
2022/03/06 04:09:16;;;;;;;15.43;9.80;;;1.20;99.90;;;;;;5114199;28;20204;-71
2022/03/06 04:11:43;;;;;;;16.23;9.30;;;1.20;99.90;;;;;;5113493;28;20320;-72
2022/03/06 04:14:10;;;;;;;19.80;10.07;;;1.20;99.90;;;;;;5110463;28;20200;-72
2022/03/06 04:16:37;;;;;;;13.37;8.87;;;1.20;99.90;;;;;;5092452;28;20647;-72
2022/03/06 04:19:04;;;;;;;15.37;9.10;;;1.30;1.00;;;;;;5093387;28;20228;-71
2022/03/06 04:21:30;;;;;;;17.93;9.83;;;1.30;1.00;;;;;;5093624;28;20652;-72
2022/03/06 04:23:59;;;;;;;16.13;9.83;;;1.30;1.00;;;;;;5092892;28;20210;-72
2022/03/06 04:26:26;;;;;;;15.17;9.27;;;1.30;1.00;;;;;;5092986;28;20559;-71
2022/03/06 04:28:52;;;;;;;16.53;9.00;;;1.20;34.40;;;;;;5093663;28;20208;-71
2022/03/06 04:31:20;;;;;;;17.50;9.40;;;1.20;96.60;;;;;;5092760;28;20197;-71
2022/03/06 04:33:47;;;;;;;14.37;8.80;;;1.30;1.00;;;;;;5093286;28;20591;-72
2022/03/06 04:36:13;;;;;;;15.07;9.07;;;1.20;1.00;;;;;;5093464;28;20687;-71
2022/03/06 04:38:41;;;;;;;15.17;8.90;;;1.20;93.50;;;;;;5092918;28;20228;-71
2022/03/06 04:41:10;;;;;;;15.43;9.10;;;1.20;72.20;;;;;;5093235;28;20239;-71
2022/03/06 04:43:37;;;;;;;15.23;9.23;;;1.20;8.00;;;;;;5093036;28;20209;-72
2022/03/06 04:46:04;;;;;;;15.20;9.10;;;1.20;1.00;;;;;;5093150;28;20201;-73
2022/03/06 04:48:31;;;;;;;15.73;9.17;;;1.20;1.00;;;;;;5093035;28;20201;-72
2022/03/06 04:50:58;;;;;;;13.17;8.60;;;1.20;99.90;;;;;;5086251;28;20198;-72
2022/03/06 04:53:24;;;;;;;14.20;8.33;;;1.10;99.90;;;;;;5085739;28;20662;-72
2022/03/06 04:55:51;;;;;;;14.57;8.23;;;1.10;99.90;;;;;;5083968;28;20285;-72
2022/03/06 04:58:20;;;;;;;14.43;8.33;;;1.10;99.90;;;;;;5093286;28;20220;-72
2022/03/06 05:00:46;;;;;;;12.93;8.50;;;1.20;1.00;;;;;;5088254;28;20212;-72
2022/03/06 05:03:13;;;;;;;17.40;8.37;;;1.20;1.00;;;;;;5085073;28;20198;-73
2022/03/06 05:05:40;;;;;;;15.07;8.70;;;1.10;1.00;;;;;;5084571;28;20206;-72
2022/03/06 05:08:07;;;;;;;13.27;8.30;;;1.10;1.00;;;;;;5088136;28;20212;-73
2022/03/06 05:10:35;;;;;;;14.57;8.30;;;1.00;99.90;;;;;;5080877;28;20204;-72
2022/03/06 05:13:03;;;;;;;13.97;8.40;;;1.00;99.90;;;;;;5088122;28;20198;-73
2022/03/06 05:15:31;;;;;;;15.47;8.83;;;1.00;99.90;;;;;;5091393;28;20208;-72
2022/03/06 05:17:58;;;;;;;14.30;8.53;;;1.10;99.90;;;;;;5086577;28;20202;-72
2022/03/06 05:20:25;;;;;;;13.50;8.10;;;1.10;99.90;;;;;;5087449;28;20594;-73
2022/03/06 05:22:51;;;;;;;12.83;7.53;;;1.10;99.90;;;;;;5085756;28;20240;-72
2022/03/06 05:25:18;;;;;;;14.03;8.17;;;1.00;99.90;;;;;;5087314;28;20297;-73
2022/03/06 05:27:45;;;;;;;12.77;8.13;;;1.10;99.90;;;;;;5087004;28;20205;-72
2022/03/06 05:30:14;;;;;;;15.60;7.90;;;1.00;99.90;;;;;;5095299;28;20201;-73
2022/03/06 05:32:42;;;;;;;15.17;8.73;;;1.00;99.90;;;;;;5086675;28;20201;-72
2022/03/06 05:35:10;;;;;;;13.27;7.53;;;1.00;99.90;;;;;;5087800;28;20573;-72
2022/03/06 05:37:37;;;;;;;16.17;8.37;;;1.00;97.30;;;;;;5091873;28;20255;-72
2022/03/06 05:40:06;;;;;;;15.17;7.70;;;1.10;1.00;;;;;;5090178;28;20221;-72
2022/03/06 05:42:33;;;;;;;13.83;7.50;;;1.00;1.00;;;;;;5084459;28;20201;-72
2022/03/06 05:45:00;;;;;;;11.93;7.57;;;1.00;1.00;;;;;;5092538;28;20242;-72
2022/03/06 05:47:27;;;;;;;13.37;8.30;;;1.10;1.00;;;;;;5087157;28;20214;-72
2022/03/06 05:49:55;;;;;;;12.90;7.70;;;1.10;1.00;;;;;;5085476;28;20201;-72
2022/03/06 05:52:22;;;;;;;15.30;8.03;;;1.10;1.00;;;;;;5089636;28;20208;-73
2022/03/06 05:54:49;;;;;;;13.33;7.53;;;1.00;1.00;;;;;;5085054;28;20234;-69
2022/03/06 05:57:16;;;;;;;12.87;8.07;;;1.10;1.00;;;;;;5089269;28;20671;-72
2022/03/06 05:59:43;;;;;;;12.63;6.80;;;1.00;1.00;;;;;;5087853;28;20222;-72
2022/03/06 06:02:10;;;;;;;13.63;7.77;;;1.10;1.00;;;;;;5092039;28;20207;-73
2022/03/06 06:04:37;;;;;;;14.17;7.77;;;1.00;1.00;;;;;;5089760;28;20209;-73
2022/03/06 06:07:05;;;;;;;14.23;7.77;;;1.00;1.00;;;;;;5085791;28;20641;-72
2022/03/06 06:09:32;;;;;;;12.67;7.70;;;1.00;1.00;;;;;;5092778;28;20193;-72
2022/03/06 06:11:58;;;;;;;12.67;7.17;;;1.00;1.00;;;;;;5089383;28;20209;-72
2022/03/06 06:14:25;;;;;;;11.43;7.07;;;1.00;1.00;;;;;;5085820;28;20208;-72
2022/03/06 06:16:52;;;;;;;11.10;7.57;;;1.00;1.00;;;;;;5089122;28;20662;-72
2022/03/06 06:19:19;;;;;;;12.23;7.63;;;1.00;1.00;;;;;;5085878;28;20245;-72
2022/03/06 06:21:46;;;;;;;14.47;7.73;;;1.00;17.90;;;;;;5095469;28;20205;-72
2022/03/06 06:24:15;;;;;;;15.73;8.27;;;1.00;1.00;;;;;;5084347;28;20577;-71
2022/03/06 06:26:43;;;;;;;11.83;6.80;;;1.10;1.00;;;;;;5084827;28;20205;-72
2022/03/06 06:29:12;;;;;;;9.07;6.53;;;1.10;99.90;;;;;;5084233;28;20202;-72
2022/03/06 06:31:39;;;;;;;14.20;7.97;;;1.10;99.90;;;;;;5089340;28;20232;-72
2022/03/06 06:34:06;;;;;;;13.17;7.17;;;1.10;1.00;;;;;;5090027;28;20723;-72
2022/03/06 06:36:33;;;;;;;12.90;7.10;;;1.10;1.00;;;;;;5091505;28;20214;-72
2022/03/06 06:38:59;;;;;;;14.83;7.23;;;1.10;99.90;;;;;;5090657;28;20339;-72
2022/03/06 06:41:28;;;;;;;13.27;7.03;;;1.10;99.90;;;;;;5090782;28;20202;-72
2022/03/06 06:43:54;;;;;;;10.23;6.50;;;1.10;99.90;;;;;;5085432;28;20548;-72
2022/03/06 06:46:21;;;;;;;14.00;7.23;;;1.10;74.40;;;;;;5086753;28;20206;-72
2022/03/06 06:48:48;;;;;;;11.47;6.87;;;1.10;99.90;;;;;;5086899;28;20212;-72
2022/03/06 06:51:15;;;;;;;11.53;7.13;;;1.10;93.30;;;;;;5088270;28;20682;-72
2022/03/06 06:53:42;;;;;;;10.63;6.83;;;1.20;99.90;;;;;;5087189;28;20296;-71
2022/03/06 06:56:08;;;;;;;13.10;7.07;;;1.10;1.00;;;;;;5084175;28;20207;-73
2022/03/06 06:58:37;;;;;;;12.50;7.10;;;1.10;1.00;;;;;;5087615;28;20700;-71
2022/03/06 07:01:03;;;;;;;12.20;6.87;;;1.10;1.00;;;;;;5091379;28;20201;-71
2022/03/06 07:03:30;;;;;;;11.60;6.93;;;1.20;1.00;;;;;;5094156;28;20198;-71
2022/03/06 07:05:58;;;;;;;12.40;7.00;;;1.20;1.00;;;;;;5087317;28;20202;-71
2022/03/06 07:08:25;;;;;;;9.67;6.63;;;1.20;1.00;;;;;;5086555;28;20193;-72
2022/03/06 07:10:52;;;;;;;10.73;6.43;;;1.20;1.00;;;;;;5090190;28;20288;-72
2022/03/06 07:13:19;;;;;;;13.27;7.30;;;1.20;99.90;;;;;;5094756;28;20208;-72
2022/03/06 07:15:47;;;;;;;10.97;6.87;;;1.30;99.90;;;;;;5090225;28;20210;-71
2022/03/06 07:18:14;;;;;;;10.37;6.77;;;1.30;1.00;;;;;;5091329;28;20205;-72
2022/03/06 07:20:41;;;;;;;12.40;6.70;;;1.40;1.00;;;;;;5087586;28;20244;-72
2022/03/06 07:23:08;;;;;;;12.27;7.00;;;1.40;1.00;;;;;;5089704;28;20201;-72
2022/03/06 07:25:35;;;;;;;14.77;7.30;;;1.40;1.00;;;;;;5090009;28;20288;-71
2022/03/06 07:28:02;;;;;;;12.90;6.87;;;1.50;1.00;;;;;;5083706;28;20199;-72
2022/03/06 07:30:29;;;;;;;12.90;7.10;;;1.40;1.00;;;;;;5084964;28;20205;-72
2022/03/06 07:32:57;;;;;;;12.50;6.90;;;1.40;99.90;;;;;;5087214;28;20197;-72
2022/03/06 07:35:24;;;;;;;11.40;7.03;;;1.50;1.00;;;;;;5091695;28;20198;-72
2022/03/06 07:37:51;;;;;;;10.57;6.20;;;1.60;43.10;;;;;;5088829;28;20194;-72
2022/03/06 07:40:20;;;;;;;13.47;7.20;;;1.60;1.00;;;;;;5091941;28;20684;-72
2022/03/06 07:42:47;;;;;;;12.53;6.80;;;1.60;99.90;;;;;;5091453;28;20577;-71
2022/03/06 07:45:15;;;;;;;13.63;7.73;;;1.60;99.90;;;;;;5094194;28;20387;-72
2022/03/06 07:47:42;;;;;;;14.33;7.30;;;1.70;99.90;;;;;;5090802;28;20667;-72
2022/03/06 07:50:14;;;;;;;10.43;6.60;;;1.60;1.00;;;;;;5090035;28;20190;-71
2022/03/06 07:52:41;;;;;;;10.27;6.03;;;1.70;1.00;;;;;;5088167;28;20218;-71
2022/03/06 07:55:09;;;;;;;13.90;6.87;;;1.70;1.00;;;;;;5090662;28;20205;-72
2022/03/06 07:57:36;;;;;;;11.10;6.20;;;1.70;1.00;;;;;;5089366;28;20655;-71
2022/03/06 08:00:05;;;;;;;14.67;7.00;;;1.80;1.00;;;;;;5082138;28;20221;-71
2022/03/06 08:02:31;;;;;;;10.70;6.03;;;1.80;1.00;;;;;;5083563;28;20193;-71
2022/03/06 08:04:58;;;;;;;12.77;6.70;;;1.80;1.00;;;;;;5087548;28;20204;-72
2022/03/06 08:07:26;;;;;;;12.30;6.60;;;1.80;99.90;;;;;;5091790;28;20198;-72
2022/03/06 08:09:53;;;;;;;11.13;6.10;;;1.80;1.00;;;;;;5088815;28;20194;-72
2022/03/06 08:12:24;;;;;;;10.23;6.13;;;1.80;1.00;;;;;;5090682;28;20580;-71
2022/03/06 08:14:51;;;;;;;12.37;6.77;;;1.90;99.90;;;;;;5087095;28;20693;-71
2022/03/06 08:17:18;;;;;;;11.43;6.03;;;2.00;99.90;;;;;;5090403;28;20238;-71
2022/03/06 08:19:45;;;;;;;10.17;5.67;;;2.00;99.90;;;;;;5089403;28;20218;-72
2022/03/06 08:22:12;;;;;;;10.80;6.17;;;1.90;1.00;;;;;;5096600;28;20738;-72
2022/03/06 08:24:40;;;;;;;10.07;5.67;;;2.00;1.00;;;;;;5088500;28;20235;-72
2022/03/06 08:27:07;;;;;;;11.77;5.57;;;2.00;99.90;;;;;;5089346;28;20208;-72
2022/03/06 08:29:35;;;;;;;8.57;5.10;;;2.00;5.10;;;;;;5088256;28;20193;-72
2022/03/06 08:32:02;;;;;;;11.97;5.80;;;2.00;1.00;;;;;;5089653;28;20198;-72
2022/03/06 08:34:28;;;;;;;11.67;5.40;;;2.00;1.00;;;;;;5086124;28;20552;-71
2022/03/06 08:36:55;;;;;;;9.47;6.00;;;2.00;1.00;;;;;;5087078;28;20671;-72
2022/03/06 08:39:22;;;;;;;11.60;6.40;;;2.10;99.90;;;;;;5088893;28;20205;-72
2022/03/06 08:41:50;;;;;;;10.30;6.10;;;2.10;1.00;;;;;;5087761;28;20208;-72
2022/03/06 08:44:17;;;;;;;10.90;6.53;;;2.20;99.90;;;;;;5088323;28;20202;-72
2022/03/06 08:46:44;;;;;;;11.33;6.17;;;2.30;99.90;;;;;;5094794;28;20209;-72
2022/03/06 08:49:11;;;;;;;11.80;5.60;;;2.20;1.00;;;;;;5093293;28;20205;-72
2022/03/06 08:51:38;;;;;;;11.73;5.87;;;2.20;1.00;;;;;;5089942;28;20202;-72
2022/03/06 08:54:05;;;;;;;9.20;5.77;;;2.20;1.00;;;;;;5086607;28;20198;-73
2022/03/06 08:56:31;;;;;;;9.93;5.30;;;2.40;99.90;;;;;;5088160;28;20197;-72
2022/03/06 08:59:00;;;;;;;8.47;4.97;;;2.30;1.00;;;;;;5087597;28;20197;-72
2022/03/06 09:01:27;;;;;;;8.43;4.77;;;2.40;1.00;;;;;;5082756;28;20237;-73
2022/03/06 09:03:54;;;;;;;9.53;4.80;;;2.50;1.00;;;;;;5090203;28;20640;-73
2022/03/06 09:06:21;;;;;;;7.10;3.93;;;2.40;24.60;;;;;;5091063;28;20577;-72
2022/03/06 09:08:47;;;;;;;9.43;4.67;;;2.40;99.90;;;;;;5086164;28;20212;-72
2022/03/06 09:11:14;;;;;;;10.87;4.97;;;2.40;99.90;;;;;;5090802;28;20199;-73
2022/03/06 09:13:41;;;;;;;8.70;5.00;;;2.60;99.90;;;;;;5082264;28;20217;-72
2022/03/06 09:16:09;;;;;;;8.70;4.67;;;2.60;99.90;;;;;;5091405;28;20197;-72
2022/03/06 09:18:36;;;;;;;10.73;4.70;;;2.50;99.90;;;;;;5094254;28;20198;-72
2022/03/06 09:21:03;;;;;;;10.77;5.10;;;2.50;99.90;;;;;;5087969;28;20222;-73
2022/03/06 09:23:30;;;;;;;8.27;4.97;;;2.50;1.00;;;;;;5090145;28;20204;-72
2022/03/06 09:25:57;;;;;;;9.57;4.60;;;2.50;1.00;;;;;;5089070;28;20739;-68
2022/03/06 09:28:24;;;;;;;9.43;5.30;;;2.60;1.00;;;;;;5091686;28;20200;-67
2022/03/06 09:30:51;;;;;;;8.80;5.00;;;2.60;99.90;;;;;;5085454;28;20201;-68
2022/03/06 09:33:19;;;;;;;8.30;5.23;;;2.50;1.00;;;;;;5083199;28;20655;-68
2022/03/06 09:35:46;;;;;;;7.20;4.73;;;2.60;1.00;;;;;;5090335;28;20205;-68
2022/03/06 09:38:12;;;;;;;7.17;4.27;;;2.60;1.00;;;;;;5088513;28;20197;-67
2022/03/06 09:40:44;;;;;;;9.03;4.00;;;2.70;1.00;;;;;;5084259;28;20580;-68
2022/03/06 09:43:15;;;;;;;8.17;4.60;;;2.70;1.00;;;;;;5082317;28;20230;-68
2022/03/06 09:45:44;;;;;;;6.77;4.20;;;2.90;94.10;;;;;;5087545;28;20664;-68
2022/03/06 09:48:12;;;;;;;8.00;4.70;;;2.80;1.00;;;;;;5092019;28;20197;-68
2022/03/06 09:50:40;;;;;;;7.87;4.60;;;2.90;99.90;;;;;;5085354;28;20202;-68
2022/03/06 09:53:07;;;;;;;8.70;4.30;;;2.90;1.00;;;;;;5077844;28;20210;-68
2022/03/06 09:55:34;;;;;;;9.50;5.40;;;3.00;1.00;;;;;;5081857;28;20201;-68
2022/03/06 09:58:02;;;;;;;9.27;4.30;;;2.90;1.00;;;;;;5086697;28;20193;-68
2022/03/06 10:00:29;;;;;;;9.00;4.80;;;2.90;1.00;;;;;;5080954;28;20220;-68
2022/03/06 10:02:57;;;;;;;8.67;4.90;;;2.90;1.00;;;;;;5083167;28;20206;-68
2022/03/06 10:05:32;;;;;;;7.97;5.27;;;3.00;1.00;;;;;;5088233;28;20223;-68
2022/03/06 10:08:21;;;;;;;7.00;4.53;;;2.90;1.00;;;;;;5086612;28;20203;-68
2022/03/06 10:10:51;;;;;;;10.57;5.10;;;2.90;1.00;;;;;;5088983;28;20209;-68
2022/03/06 10:13:20;;;;;;;8.87;4.97;;;3.00;99.90;;;;;;5085643;28;20313;-68
2022/03/06 10:16:04;;;;;;;12.03;5.23;;;3.00;99.90;;;;;;5084705;28;20207;-68
2022/03/06 10:18:33;;;;;;;10.27;5.23;;;3.00;99.90;;;;;;5086492;28;20204;-68
2022/03/06 10:21:11;;;;;;;7.40;4.87;;;3.00;99.90;;;;;;5087215;28;20228;-74
2022/03/06 10:23:46;;;;;;;9.33;5.23;;;3.00;99.90;;;;;;5087634;28;20201;-72
2022/03/06 10:26:15;;;;;;;9.57;5.93;;;3.10;99.90;;;;;;5064139;28;20289;-72
2022/03/06 10:28:48;;;;;;;7.73;4.77;;;3.30;1.00;;;;;;5086173;28;20211;-72
2022/03/06 10:31:15;;;;;;;11.07;5.63;;;3.10;94.20;;;;;;5087820;28;20712;-72
2022/03/06 10:33:53;;;;;;;9.47;5.57;;;3.10;1.00;;;;;;5089221;28;20213;-72
2022/03/06 10:36:30;;;;;;;8.20;5.23;;;3.30;1.00;;;;;;5089095;28;20194;-72
2022/03/06 10:38:58;;;;;;;8.57;4.80;;;3.00;29.90;;;;;;5067162;28;20636;-72
2022/03/06 10:41:34;;;;;;;6.77;4.83;;;3.00;58.20;;;;;;5090810;28;20221;-75
2022/03/06 10:44:01;;;;;;;7.03;4.43;;;3.00;99.90;;;;;;5090607;28;20193;-68
2022/03/06 10:46:33;;;;;;;7.93;5.10;;;3.20;99.90;;;;;;5089503;28;20202;-67
2022/03/06 10:49:02;;;;;;;9.73;5.33;;;3.30;99.90;;;;;;5092018;28;20198;-68
2022/03/06 10:51:30;;;;;;;5.83;4.37;;;3.20;99.90;;;;;;5093597;28;20198;-68
2022/03/06 10:53:59;;;;;;;7.83;5.13;;;3.30;1.00;;;;;;5090970;28;20210;-68
2022/03/06 10:56:27;;;;;;;8.30;4.90;;;3.40;81.60;;;;;;5088625;28;20198;-68
2022/03/06 10:58:56;;;;;;;10.10;5.40;;;3.40;1.00;;;;;;5096418;28;20201;-68
2022/03/06 11:01:23;;;;;;;8.03;4.90;;;3.50;81.60;;;;;;5089119;28;20308;-68
2022/03/06 11:03:51;;;;;;;9.00;5.03;;;3.60;99.90;;;;;;5088794;28;20216;-68
2022/03/06 11:06:21;;;;;;;9.47;5.30;;;3.50;1.00;;;;;;5086869;28;20201;-68
2022/03/06 11:08:48;;;;;;;8.63;4.90;;;3.60;99.90;;;;;;5091498;28;20201;-68
2022/03/06 11:11:17;;;;;;;9.13;5.13;;;3.60;1.00;;;;;;5094575;28;20197;-68
2022/03/06 11:13:44;;;;;;;7.80;4.57;;;3.70;99.90;;;;;;5087854;28;20571;-68
2022/03/06 11:16:11;;;;;;;10.57;5.10;;;3.40;1.00;;;;;;5093374;28;20666;-68
2022/03/06 11:18:39;;;;;;;7.07;4.27;;;3.50;1.00;;;;;;5081535;28;20212;-68
2022/03/06 11:21:06;;;;;;;6.70;4.27;;;3.40;1.00;;;;;;5090630;28;20272;-68
2022/03/06 11:23:37;;;;;;;9.67;4.97;;;3.40;1.00;;;;;;5091783;28;20206;-68
2022/03/06 11:26:26;;;;;;;7.00;4.40;;;3.50;1.00;;;;;;5098266;28;20209;-68
2022/03/06 11:29:13;;;;;;;7.17;4.83;;;3.50;83.70;;;;;;5089291;28;20210;-68
2022/03/06 11:31:47;;;;;;;7.83;4.73;;;3.50;1.00;;;;;;5090840;28;20208;-68
2022/03/06 11:34:23;;;;;;;7.20;4.27;;;3.60;1.00;;;;;;5087312;28;20204;-68
2022/03/06 11:36:51;;;;;;;7.20;4.50;;;3.60;1.00;;;;;;5089085;28;20193;-68
2022/03/06 11:39:48;;;;;;;8.20;5.17;;;3.50;1.00;;;;;;5086245;28;20568;-68
2022/03/06 11:42:54;;;;;;;10.63;5.20;;;3.60;1.00;;;;;;5085397;28;20246;-68
2022/03/06 11:45:46;;;;;;;9.43;5.30;;;3.60;1.00;;;;;;5089943;28;20205;-68
2022/03/06 11:48:24;;;;;;;8.20;5.00;;;3.60;1.00;;;;;;5088598;28;20241;-68
2022/03/06 11:51:24;;;;;;;7.80;5.03;;;3.40;1.00;;;;;;5071087;28;20201;-68
2022/03/06 11:53:52;;;;;;;8.53;5.33;;;3.60;1.00;;;;;;5085525;28;20286;-68
2022/03/06 11:56:42;;;;;;;7.50;4.93;;;3.40;1.00;;;;;;5094834;28;20202;-68
2022/03/06 11:59:22;;;;;;;11.23;4.80;;;3.50;1.00;;;;;;5089963;28;20227;-68
2022/03/06 12:01:51;;;;;;;8.23;4.63;;;3.40;1.00;;;;;;5087865;28;20229;-68
2022/03/06 12:04:21;;;;;;;8.57;4.80;;;3.50;1.00;;;;;;5092259;28;20469;-68
2022/03/06 12:06:51;;;;;;;9.83;5.37;;;3.30;1.00;;;;;;5089571;28;20205;-68
2022/03/06 12:09:19;;;;;;;8.47;5.30;;;3.20;99.90;;;;;;5086535;28;20197;-68
2022/03/06 12:11:47;;;;;;;7.70;4.67;;;3.20;99.90;;;;;;5090450;28;20850;-68
2022/03/06 12:14:18;;;;;;;5.33;4.40;;;3.30;99.90;;;;;;5087875;28;20212;-68
2022/03/06 12:17:24;;;;;;;7.80;5.40;;;3.30;99.90;;;;;;5094629;28;20656;-68
2022/03/06 12:20:26;;;;;;;14.17;5.30;;;3.40;1.00;;;;;;5087901;28;20223;-69
2022/03/06 12:23:03;;;;;;;6.50;4.40;;;3.50;1.00;;;;;;5086642;28;20209;-68
2022/03/06 12:25:33;;;;;;;8.93;4.80;;;3.40;99.90;;;;;;5079233;28;20264;-67
2022/03/06 12:28:41;;;;;;;7.53;4.47;;;3.30;99.90;;;;;;5090940;28;20241;-68
2022/03/06 12:31:32;;;;;;;8.67;4.50;;;3.40;99.90;;;;;;5082170;28;20244;-68
2022/03/06 12:34:01;;;;;;;8.03;4.97;;;3.30;99.90;;;;;;5080641;28;20294;-68
2022/03/06 12:36:28;;;;;;;9.27;5.50;;;3.30;99.90;;;;;;5090580;28;20582;-68
2022/03/06 12:38:57;;;;;;;8.97;5.20;;;3.30;99.90;;;;;;5084369;28;20201;-67
2022/03/06 12:41:24;;;;;;;6.37;4.80;;;3.30;99.90;;;;;;5085553;28;20221;-68
2022/03/06 12:44:02;;;;;;;5.33;3.80;;;3.20;99.90;;;;;;5084486;28;20584;-69
2022/03/06 12:46:29;;;;;;;7.07;5.03;;;3.30;99.90;;;;;;5078828;28;20198;-70
2022/03/06 12:48:57;;;;;;;7.23;4.20;;;3.20;99.90;;;;;;5091814;28;20212;-69
2022/03/06 12:51:37;;;;;;;6.90;4.23;;;3.30;1.00;;;;;;5085429;28;20199;-70
2022/03/06 12:54:06;;;;;;;6.23;3.97;;;3.20;1.00;;;;;;5087655;28;20193;-70
2022/03/06 12:56:37;;;;;;;5.07;3.97;;;3.10;1.00;;;;;;5087191;28;20202;-70
2022/03/06 12:59:15;;;;;;;4.97;3.97;;;3.30;1.00;;;;;;5089450;28;20201;-70
2022/03/06 13:01:42;;;;;;;6.03;4.20;;;3.30;1.00;;;;;;5087838;28;20702;-70